Time;durP1;ratioP1;P1;durP2;ratioP2;P2;SDS_P1;SDS_P2;PMS_P1;PMS_P2;Temp;Humidity;BMP_temperature;BMP_pressure;BME280_temperature;BME280_humidity;BME280_pressure;Samples;Min_cycle;Max_cycle;Signal;HPM_P1;HPM_P2
2022/08/01 00:00:09;;;;;;;10.18;9.40;;;;;;;19.44;86.23;101188.69;6269043;28;20227;-67
2022/08/01 00:03:30;;;;;;;9.57;8.82;;;;;;;19.43;86.33;101176.91;6250177;28;20227;-67
2022/08/01 00:06:51;;;;;;;9.63;8.98;;;;;;;19.31;87.12;101191.16;6265140;28;20227;-68
2022/08/01 00:10:15;;;;;;;11.65;10.77;;;;;;;19.40;86.40;101187.38;6256246;28;20255;-68
2022/08/01 00:13:36;;;;;;;8.85;8.25;;;;;;;19.38;87.11;101194.91;6241078;28;20450;-68
2022/08/01 00:16:57;;;;;;;9.40;8.60;;;;;;;19.46;86.13;101200.28;6235696;28;20692;-67
2022/08/01 00:20:18;;;;;;;9.63;8.82;;;;;;;19.46;86.04;101183.88;6258786;28;21130;-67
2022/08/01 00:23:39;;;;;;;10.25;9.55;;;;;;;19.38;86.47;101184.78;6264797;28;20234;-67
2022/08/01 00:27:01;;;;;;;9.40;8.60;;;;;;;19.47;86.21;101183.69;6264187;28;20236;-68
2022/08/01 00:30:22;;;;;;;10.57;9.68;;;;;;;19.44;86.27;101183.22;6259368;28;20223;-66
2022/08/01 00:33:43;;;;;;;9.30;8.60;;;;;;;19.36;86.35;101183.31;6261761;28;20236;-67
2022/08/01 00:37:04;;;;;;;9.75;8.95;;;;;;;19.46;86.15;101192.09;6261195;28;20227;-68
2022/08/01 00:40:25;;;;;;;8.77;8.07;;;;;;;19.45;86.20;101182.16;6254236;28;20625;-67
2022/08/01 00:43:47;;;;;;;10.73;9.82;;;;;;;19.35;86.61;101176.13;6259588;28;20235;-66
2022/08/01 00:47:08;;;;;;;9.95;9.25;;;;;;;19.39;86.47;101182.91;6258422;28;20235;-67
2022/08/01 00:50:30;;;;;;;8.43;7.82;;;;;;;19.44;86.35;101184.06;6266028;28;20235;-67
2022/08/01 00:53:51;;;;;;;9.90;9.13;;;;;;;19.34;86.42;101179.91;6266441;28;20561;-66
2022/08/01 00:57:12;;;;;;;8.57;7.88;;;;;;;19.36;86.36;101186.88;6260040;28;20223;-67
2022/08/01 01:00:36;;;;;;;9.07;8.38;;;;;;;19.21;87.15;101180.50;6262550;28;20228;-67
2022/08/01 01:03:57;;;;;;;8.65;8.02;;;;;;;19.34;86.44;101182.66;6262821;28;20242;-66
2022/08/01 01:07:24;;;;;;;7.00;6.40;;;;;;;19.46;85.96;101179.25;6262458;28;20235;-66
2022/08/01 01:10:53;;;;;;;7.85;7.18;;;;;;;19.53;85.49;101180.22;6264392;28;20257;-65
2022/08/01 01:14:24;;;;;;;7.95;7.28;;;;;;;19.46;85.61;101181.97;6260153;28;20564;-67
2022/08/01 01:17:52;;;;;;;6.88;6.38;;;;;;;19.40;85.08;101184.63;6254064;28;20234;-67
2022/08/01 01:21:45;;;;;;;6.05;5.65;;;;;;;19.48;85.10;101179.06;6245573;28;20324;-67
2022/08/01 01:25:19;;;;;;;6.50;5.97;;;;;;;19.38;85.60;101184.78;6264735;28;20767;-67
2022/08/01 01:28:54;;;;;;;7.65;6.90;;;;;;;19.40;85.34;101190.09;6242571;28;20239;-66
2022/08/01 01:32:20;;;;;;;8.15;6.40;;;;;;;19.46;84.93;101187.44;6259524;28;20318;-66
2022/08/01 01:35:47;;;;;;;6.93;6.43;;;;;;;19.39;85.81;101200.19;6263483;28;20227;-67
2022/08/01 01:39:08;;;;;;;8.35;7.70;;;;;;;19.46;85.28;101186.63;6252714;28;20226;-67
2022/08/01 01:42:31;;;;;;;9.20;8.15;;;;;;;19.23;86.96;101196.72;6258547;28;20230;-67
2022/08/01 01:45:54;;;;;;;8.15;7.55;;;;;;;19.28;86.63;101202.47;6259400;28;20231;-66
2022/08/01 01:49:17;;;;;;;8.30;7.55;;;;;;;19.32;86.56;101201.06;6259918;28;20234;-68
2022/08/01 01:52:40;;;;;;;17.30;10.45;;;;;;;19.13;87.27;101197.81;6266875;28;20329;-66
2022/08/01 01:56:03;;;;;;;8.75;8.05;;;;;;;19.22;87.35;101200.47;6267249;28;20219;-67
2022/08/01 01:59:27;;;;;;;7.95;7.22;;;;;;;19.30;86.96;101205.84;6266547;28;20227;-66
2022/08/01 02:02:51;;;;;;;9.10;8.30;;;;;;;19.15;87.75;101198.47;6249684;28;20240;-67
2022/08/01 02:06:15;;;;;;;10.35;8.70;;;;;;;19.27;87.33;101201.63;6263426;28;20235;-67
2022/08/01 02:09:38;;;;;;;9.07;8.40;;;;;;;19.20;86.91;101211.59;6266411;28;20227;-67
2022/08/01 02:13:02;;;;;;;9.02;8.23;;;;;;;19.11;87.60;101209.94;6270949;28;20521;-66
2022/08/01 02:16:26;;;;;;;9.40;8.60;;;;;;;19.15;87.09;101206.66;6261914;28;21231;-67
2022/08/01 02:19:49;;;;;;;9.73;8.73;;;;;;;19.16;87.18;101207.53;6236898;28;20510;-66
2022/08/01 02:23:12;;;;;;;8.80;7.90;;;;;;;19.14;86.64;101207.72;6268822;28;20239;-67
2022/08/01 02:26:34;;;;;;;9.93;9.02;;;;;;;18.92;87.92;101215.94;6267334;28;20250;-66
2022/08/01 02:29:59;;;;;;;8.98;8.30;;;;;;;19.00;87.75;101211.22;6266030;28;20236;-67
2022/08/01 02:33:24;;;;;;;9.55;8.55;;;;;;;19.14;87.12;101210.47;6266222;28;20227;-67
2022/08/01 02:36:48;;;;;;;8.25;7.65;;;;;;;19.14;87.05;101199.53;6265994;28;20250;-67
2022/08/01 02:40:12;;;;;;;7.10;6.50;;;;;;;19.14;87.20;101204.13;6269559;28;20235;-67
2022/08/01 02:43:37;;;;;;;8.10;7.40;;;;;;;19.08;87.27;101213.94;6271100;28;20239;-68
2022/08/01 02:47:02;;;;;;;8.07;7.38;;;;;;;18.97;87.85;101214.34;6262459;28;20239;-67
2022/08/01 02:50:25;;;;;;;7.97;7.07;;;;;;;18.92;87.72;101213.19;6269966;28;20230;-67
2022/08/01 02:53:49;;;;;;;6.50;5.90;;;;;;;19.01;87.50;101212.94;6274361;28;22031;-67
2022/08/01 02:57:11;;;;;;;9.20;6.85;;;;;;;19.04;87.49;101215.31;6268147;28;20230;-67
2022/08/01 03:00:33;;;;;;;7.28;6.60;;;;;;;18.97;87.79;101227.16;6271284;28;20617;-66
2022/08/01 03:03:54;;;;;;;6.90;6.20;;;;;;;19.06;87.01;101221.47;6268501;28;20596;-67
2022/08/01 03:07:17;;;;;;;7.43;6.13;;;;;;;19.04;87.01;101228.13;6259589;28;20240;-66
2022/08/01 03:10:44;;;;;;;6.47;5.97;;;;;;;18.98;87.33;101228.88;6266062;28;20231;-66
2022/08/01 03:14:10;;;;;;;6.93;6.28;;;;;;;18.94;87.04;101227.53;6266993;28;20613;-66
2022/08/01 03:17:32;;;;;;;7.40;5.80;;;;;;;18.92;87.40;101222.22;6269528;28;20276;-67
2022/08/01 03:20:56;;;;;;;5.57;5.07;;;;;;;19.05;86.63;101227.09;6267275;28;20239;-67
2022/08/01 03:24:19;;;;;;;5.05;4.55;;;;;;;19.05;86.52;101233.41;6266839;28;20638;-66
2022/08/01 03:27:44;;;;;;;7.50;6.80;;;;;;;19.05;86.53;101238.03;6270459;28;20620;-66
2022/08/01 03:31:06;;;;;;;8.38;7.32;;;;;;;19.03;86.53;101243.69;6270810;28;20219;-68
2022/08/01 03:34:27;;;;;;;9.95;6.40;;;;;;;19.03;86.42;101240.94;6270734;28;20235;-67
2022/08/01 03:37:53;;;;;;;12.10;6.57;;;;;;;19.05;86.44;101243.47;6268138;28;20238;-66
2022/08/01 03:41:18;;;;;;;6.68;6.03;;;;;;;19.04;86.41;101247.25;6261303;28;20235;-66
2022/08/01 03:44:41;;;;;;;6.50;5.85;;;;;;;18.94;86.75;101244.75;6261605;28;20255;-67
2022/08/01 03:48:07;;;;;;;5.55;5.05;;;;;;;18.98;86.47;101243.34;6258814;28;20239;-67
2022/08/01 03:51:30;;;;;;;6.25;5.68;;;;;;;18.94;86.62;101244.75;6259967;28;20318;-67
2022/08/01 03:54:54;;;;;;;6.18;5.68;;;;;;;19.00;86.47;101246.75;6264312;28;20239;-67
2022/08/01 03:58:15;;;;;;;6.70;5.65;;;;;;;19.01;86.10;101253.09;6273085;28;20239;-68
2022/08/01 04:01:38;;;;;;;7.72;6.97;;;;;;;19.08;86.48;101254.94;6268837;28;20269;-67
2022/08/01 04:05:00;;;;;;;7.70;6.85;;;;;;;19.07;86.37;101255.94;6268729;28;20544;-67
2022/08/01 04:08:21;;;;;;;9.30;7.47;;;;;;;19.12;86.34;101260.88;6262248;28;20243;-67
2022/08/01 04:11:41;;;;;;;5.07;4.57;;;;;;;19.12;85.51;101267.19;6263484;28;20227;-68
2022/08/01 04:15:03;;;;;;;4.97;4.60;;;;;;;19.04;85.49;101272.72;6266366;28;20239;-67
2022/08/01 04:18:26;;;;;;;5.28;4.40;;;;;;;19.17;85.38;101267.47;6242593;28;20231;-67
2022/08/01 04:21:47;;;;;;;7.13;4.20;;;;;;;19.23;84.94;101273.25;6246541;28;20235;-66
2022/08/01 04:25:13;;;;;;;5.05;4.38;;;;;;;19.21;85.22;101276.19;6260562;28;20236;-67
2022/08/01 04:28:37;;;;;;;4.65;4.22;;;;;;;19.14;85.58;101278.78;6258499;28;20772;-67
2022/08/01 04:32:00;;;;;;;10.02;7.43;;;;;;;19.12;85.62;101280.88;6260297;28;21376;-67
2022/08/01 04:35:25;;;;;;;4.65;4.30;;;;;;;19.06;85.91;101286.19;6263924;28;20821;-68
2022/08/01 04:38:50;;;;;;;8.20;4.68;;;;;;;19.04;85.84;101296.47;6260292;28;22689;-68
2022/08/01 04:42:14;;;;;;;4.53;4.18;;;;;;;19.10;85.61;101303.94;6254584;28;20508;-67
2022/08/01 04:45:36;;;;;;;4.55;4.15;;;;;;;19.03;85.99;101301.06;6263865;28;20258;-68
2022/08/01 04:48:58;;;;;;;4.10;3.70;;;;;;;18.92;86.03;101306.09;6262739;28;20314;-65
2022/08/01 04:52:20;;;;;;;4.00;3.05;;;;;;;19.01;85.85;101314.06;6260630;28;20239;-67
2022/08/01 04:55:41;;;;;;;3.65;3.03;;;;;;;19.06;85.94;101317.13;6263948;28;20235;-67
2022/08/01 05:02:40;;;;;;;3.05;2.85;;;;;;;19.06;85.79;101317.13;6258580;28;20243;-68
2022/08/01 05:06:02;;;;;;;3.33;3.03;;;;;;;19.14;85.78;101322.53;6250018;28;20281;-65
2022/08/01 05:09:25;;;;;;;3.00;2.72;;;;;;;18.96;85.74;101321.13;6234689;28;20256;-67
2022/08/01 05:12:47;;;;;;;2.40;2.20;;;;;;;18.97;85.65;101310.00;6237051;28;20611;-66
2022/08/01 05:16:07;;;;;;;2.15;2.05;;;;;;;19.05;85.87;101317.28;6236240;28;20228;-67
2022/08/01 05:19:28;;;;;;;3.08;2.80;;;;;;;19.19;85.12;101318.41;6255800;28;20231;-67
2022/08/01 05:22:49;;;;;;;1.80;1.70;;;;;;;19.23;85.62;101330.69;6261955;28;20235;-67
2022/08/01 05:26:13;;;;;;;3.63;2.47;;;;;;;19.27;84.91;101327.41;6262083;28;20230;-67
2022/08/01 05:29:35;;;;;;;2.03;1.55;;;;;;;19.12;84.88;101330.06;6261701;28;20781;-68
2022/08/01 05:32:56;;;;;;;2.00;1.90;;;;;;;19.25;84.30;101336.81;6258597;28;20638;-67
2022/08/01 05:36:17;;;;;;;1.58;1.48;;;;;;;19.21;84.66;101347.28;6259925;28;20345;-80
2022/08/01 05:39:38;;;;;;;1.80;1.70;;;;;;;19.37;83.83;101343.59;6257614;28;20231;-76
2022/08/01 05:43:01;;;;;;;3.70;2.03;;;;;;;19.39;83.57;101347.00;6262651;28;20228;-82
2022/08/01 05:46:22;;;;;;;3.20;1.48;;;;;;;19.49;82.86;101343.00;6246868;28;20239;-77
2022/08/01 05:49:43;;;;;;;2.13;1.92;;;;;;;19.52;82.57;101349.97;6263850;28;20896;-79
2022/08/01 05:53:04;;;;;;;3.30;2.25;;;;;;;19.67;81.64;101348.16;6280005;28;20226;-86
2022/08/01 05:56:26;;;;;;;5.18;2.90;;;;;;;19.79;81.52;101363.09;6271445;28;20239;-80
2022/08/01 05:59:48;;;;;;;3.67;3.17;;;;;;;19.82;81.17;101362.72;6268259;28;20231;-82
2022/08/01 06:03:11;;;;;;;3.05;2.25;;;;;;;19.97;80.86;101362.75;6269151;28;20223;-76
2022/08/01 06:06:31;;;;;;;2.78;2.58;;;;;;;20.00;80.42;101360.53;6249689;28;20231;-76
2022/08/01 06:09:53;;;;;;;3.65;2.53;;;;;;;19.92;79.85;101366.91;6237520;28;20247;-80
2022/08/01 06:13:14;;;;;;;5.00;2.88;;;;;;;20.01;79.58;101367.69;6267388;28;20284;-79
2022/08/01 06:16:36;;;;;;;3.25;2.60;;;;;;;20.02;79.12;101371.28;6266109;28;20239;-79
2022/08/01 06:19:57;;;;;;;4.25;3.83;;;;;;;20.19;78.40;101361.88;6258134;28;20227;-82
2022/08/01 06:23:18;;;;;;;4.43;3.60;;;;;;;20.36;76.77;101369.75;6261223;28;20775;-79
2022/08/01 06:26:39;;;;;;;5.55;3.80;;;;;;;20.41;77.24;101367.31;6255487;28;20227;-74
2022/08/01 06:30:00;;;;;;;6.22;4.10;;;;;;;20.68;76.13;101372.13;6251903;28;20314;-74
2022/08/01 06:33:22;;;;;;;5.43;4.20;;;;;;;20.60;76.29;101380.47;6242619;28;20290;-74
2022/08/01 06:36:43;;;;;;;5.88;3.53;;;;;;;20.37;76.65;101387.91;6254877;28;20681;-82
2022/08/01 06:40:05;;;;;;;3.50;3.20;;;;;;;20.34;76.93;101391.00;6260797;28;20682;-84
2022/08/01 06:43:26;;;;;;;4.18;3.72;;;;;;;20.26;77.22;101392.97;6263002;28;20516;-80
2022/08/01 06:46:48;;;;;;;5.97;4.78;;;;;;;20.15;77.49;101393.41;6237395;28;20228;-82
2022/08/01 06:50:13;;;;;;;7.53;4.78;;;;;;;20.21;77.84;101398.16;6245677;28;20677;-82
2022/08/01 06:53:35;;;;;;;5.22;4.72;;;;;;;20.19;77.37;101400.22;6268263;28;20231;-80
2022/08/01 06:56:56;;;;;;;7.45;5.45;;;;;;;20.44;77.08;101407.19;6274072;28;20305;-78
2022/08/01 07:00:22;;;;;;;6.47;5.32;;;;;;;20.38;76.63;101416.97;6265451;28;20243;-75
2022/08/01 07:03:43;;;;;;;6.03;4.30;;;;;;;20.52;75.84;101407.09;6248186;28;20306;-76
2022/08/01 07:07:05;;;;;;;8.25;4.55;;;;;;;20.56;75.70;101412.00;6260890;28;20235;-75
2022/08/01 07:10:26;;;;;;;8.82;4.88;;;;;;;20.42;76.26;101417.47;6251072;28;20736;-75
2022/08/01 07:13:46;;;;;;;5.13;3.72;;;;;;;20.66;75.27;101411.72;6255892;28;20227;-73
2022/08/01 07:17:07;;;;;;;7.93;4.05;;;;;;;20.93;74.30;101418.41;6259042;28;20248;-77
2022/08/01 07:20:29;;;;;;;8.73;4.15;;;;;;;21.16;72.94;101420.03;6251801;28;20235;-84
2022/08/01 07:23:51;;;;;;;4.90;3.63;;;;;;;21.16;72.60;101427.41;6262413;28;20325;-80
2022/08/01 07:27:12;;;;;;;4.20;3.80;;;;;;;20.69;74.64;101428.63;6266174;28;20231;-78
2022/08/01 07:30:34;;;;;;;6.55;3.90;;;;;;;20.63;74.87;101440.34;6272528;28;20259;-79
2022/08/01 07:33:55;;;;;;;9.15;5.72;;;;;;;20.54;75.20;101435.16;6263878;28;20242;-75
2022/08/01 07:37:16;;;;;;;7.97;4.82;;;;;;;20.65;74.47;101431.97;6243885;28;20224;-80
2022/08/01 07:40:38;;;;;;;7.28;4.80;;;;;;;20.91;72.74;101436.94;6246218;28;20250;-77
2022/08/01 07:43:59;;;;;;;9.45;4.75;;;;;;;21.06;72.67;101440.56;6247937;28;20265;-79
2022/08/01 07:47:24;;;;;;;11.15;5.35;;;;;;;20.54;73.79;101459.81;6262153;28;20223;-80
2022/08/01 07:50:45;;;;;;;11.10;6.15;;;;;;;20.25;74.91;101457.00;6239342;28;20239;-75
2022/08/01 07:54:07;;;;;;;8.32;5.00;;;;;;;20.55;73.58;101466.97;6237927;28;20223;-78
2022/08/01 07:57:29;;;;;;;10.32;5.72;;;;;;;20.77;72.39;101463.34;6263148;28;20247;-78
2022/08/01 08:00:50;;;;;;;8.13;4.97;;;;;;;21.05;72.13;101472.63;6230942;28;20515;-74
2022/08/01 08:04:11;;;;;;;9.18;4.60;;;;;;;20.69;71.72;101475.22;6230357;28;20323;-76
2022/08/01 08:07:35;;;;;;;10.40;4.47;;;;;;;20.50;72.82;101480.41;6231211;28;20240;-73
2022/08/01 08:10:56;;;;;;;9.15;4.20;;;;;;;20.90;71.16;101490.09;6240860;28;20818;-74
2022/08/01 08:14:22;;;;;;;9.00;3.58;;;;;;;20.82;71.88;101490.19;6241274;28;21375;-72
2022/08/01 08:17:43;;;;;;;7.45;3.40;;;;;;;20.93;70.16;101497.91;6268295;28;20752;-76
2022/08/01 08:21:04;;;;;;;8.80;3.55;;;;;;;20.97;70.17;101499.25;6267573;28;20227;-75
2022/08/01 08:24:26;;;;;;;7.45;2.90;;;;;;;21.09;70.05;101495.88;6268490;28;20248;-75
2022/08/01 08:27:47;;;;;;;11.05;4.75;;;;;;;21.52;68.73;101494.16;6276654;28;20231;-71
2022/08/01 08:31:09;;;;;;;5.82;2.88;;;;;;;21.61;67.49;101503.94;6266310;28;20786;-74
2022/08/01 08:34:30;;;;;;;7.93;2.30;;;;;;;21.25;67.75;101506.69;6260649;28;20313;-77
2022/08/01 08:37:51;;;;;;;6.95;2.42;;;;;;;21.75;66.53;101510.47;6265620;28;20279;-75
2022/08/01 08:41:12;;;;;;;8.13;2.63;;;;;;;22.13;63.91;101512.81;6257777;28;20234;-74
2022/08/01 08:44:34;;;;;;;4.45;2.22;;;;;;;21.83;64.44;101513.97;6265527;28;20236;-74
2022/08/01 08:47:57;;;;;;;8.82;2.80;;;;;;;21.81;64.90;101527.03;6264562;28;20218;-72
2022/08/01 08:51:19;;;;;;;7.07;2.75;;;;;;;21.42;66.97;101527.34;6266854;28;20762;-77
2022/08/01 08:54:42;;;;;;;5.35;2.72;;;;;;;21.46;66.00;101531.41;6265995;28;20222;-76
2022/08/01 08:58:05;;;;;;;6.80;2.92;;;;;;;21.23;64.40;101535.34;6270040;28;20243;-76
2022/08/01 09:01:26;;;;;;;2.38;1.50;;;;;;;21.69;64.00;101527.72;6259843;28;20235;-75
2022/08/01 09:04:50;;;;;;;6.68;3.42;;;;;;;21.74;63.94;101538.94;6266656;28;20599;-78
2022/08/01 09:08:12;;;;;;;5.10;1.98;;;;;;;21.85;63.22;101539.34;6271862;28;20628;-76
2022/08/01 09:11:34;;;;;;;7.38;2.53;;;;;;;22.08;62.78;101540.03;6230787;28;20233;-76
2022/08/01 09:14:55;;;;;;;4.25;2.42;;;;;;;22.30;62.41;101546.38;6255769;28;20224;-77
2022/08/01 09:18:34;;;;;;;4.57;2.75;;;;;;;21.98;60.66;101549.63;6236444;28;20257;-73
2022/08/01 09:21:58;;;;;;;6.38;2.42;;;;;;;22.05;60.32;101556.06;6264231;28;20231;-75
2022/08/01 09:25:19;;;;;;;4.68;2.20;;;;;;;22.07;59.63;101559.47;6262773;28;20316;-76
2022/08/01 09:28:41;;;;;;;8.60;2.70;;;;;;;21.78;59.59;101562.25;6265088;28;20231;-72
2022/08/01 09:32:06;;;;;;;7.57;3.30;;;;;;;21.64;59.59;101569.47;6256344;28;20246;-77
2022/08/01 09:35:29;;;;;;;7.68;2.85;;;;;;;21.57;60.21;101574.00;6263986;28;20313;-79
2022/08/01 09:38:54;;;;;;;4.20;1.92;;;;;;;21.89;58.72;101576.34;6230200;28;20616;-75
2022/08/01 09:42:22;;;;;;;8.20;2.20;;;;;;;22.06;58.12;101585.22;6236225;28;20227;-77
2022/08/01 09:45:44;;;;;;;5.25;2.00;;;;;;;22.16;57.27;101581.13;6232814;28;20241;-74
2022/08/01 09:49:06;;;;;;;5.00;2.03;;;;;;;22.48;56.86;101576.16;6227764;28;20524;-74
2022/08/01 09:52:28;;;;;;;4.25;2.28;;;;;;;22.52;55.97;101578.31;6226203;28;20227;-73
2022/08/01 09:55:52;;;;;;;9.88;2.50;;;;;;;22.44;56.48;101564.72;6246909;28;20236;-79
2022/08/01 09:59:13;;;;;;;7.30;2.85;;;;;;;22.25;56.83;101568.97;6243720;28;20231;-74
2022/08/01 10:02:37;;;;;;;4.80;2.28;;;;;;;22.73;57.82;101583.84;6242797;28;20240;-73
2022/08/01 10:05:58;;;;;;;7.57;3.22;;;;;;;22.50;56.87;101576.81;6260786;28;20319;-77
2022/08/01 10:09:29;;;;;;;5.82;2.78;;;;;;;22.53;56.31;101566.25;6263648;28;20248;-75
2022/08/01 10:12:53;;;;;;;8.02;2.42;;;;;;;23.00;57.78;101571.16;6240342;28;20250;-75
2022/08/01 10:16:15;;;;;;;6.65;3.13;;;;;;;23.15;55.60;101565.53;6242407;28;20233;-74
2022/08/01 10:19:37;;;;;;;5.15;2.20;;;;;;;23.52;55.45;101593.56;6231976;28;20224;-74
2022/08/01 10:23:01;;;;;;;4.90;3.15;;;;;;;23.52;56.52;101587.19;6250562;28;20219;-73
2022/08/01 10:26:26;;;;;;;4.72;2.22;;;;;;;22.89;54.88;101585.44;6260446;28;20219;-73
2022/08/01 10:29:52;;;;;;;7.07;3.03;;;;;;;23.60;54.28;101590.63;6267248;28;20234;-74
2022/08/01 10:33:13;;;;;;;6.63;2.72;;;;;;;23.50;54.71;101589.31;6256927;28;20224;-74
2022/08/01 10:36:38;;;;;;;3.75;2.13;;;;;;;23.64;54.20;101594.69;6271136;28;20886;-74
2022/08/01 10:39:59;;;;;;;7.47;2.80;;;;;;;23.04;53.39;101599.97;6269049;28;20231;-74
2022/08/01 10:43:20;;;;;;;6.72;4.10;;;;;;;23.10;53.80;101587.28;6267766;28;20222;-74
2022/08/01 10:46:47;;;;;;;8.43;2.38;;;;;;;23.22;54.25;101599.47;6266447;28;20223;-74
2022/08/01 10:50:20;;;;;;;6.30;2.55;;;;;;;22.97;54.70;101597.16;6263190;28;20243;-74
2022/08/01 10:53:47;;;;;;;5.85;2.95;;;;;;;23.31;55.24;101590.00;6265485;28;20498;-75
2022/08/01 10:57:08;;;;;;;9.02;2.88;;;;;;;23.51;53.51;101591.03;6263654;28;20938;-74
2022/08/01 11:00:29;;;;;;;2.47;2.08;;;;;;;23.52;53.98;101601.81;6265389;28;20231;-74
2022/08/01 11:04:07;;;;;;;4.95;1.80;;;;;;;23.62;53.57;101605.03;6260237;28;20252;-77
2022/08/01 11:07:43;;;;;;;5.13;2.22;;;;;;;23.39;50.87;101598.97;6269689;28;20509;-77
2022/08/01 11:11:07;;;;;;;4.25;2.05;;;;;;;24.03;52.29;101598.66;6262785;28;20234;-75
2022/08/01 11:14:29;;;;;;;6.80;2.35;;;;;;;23.78;53.44;101604.69;6261229;28;20223;-77
2022/08/01 11:17:51;;;;;;;6.00;2.17;;;;;;;23.93;51.12;101612.00;6252774;28;20302;-76
2022/08/01 11:21:13;;;;;;;6.63;2.45;;;;;;;23.09;50.99;101605.72;6256685;28;20609;-76
2022/08/01 11:24:58;;;;;;;8.20;3.03;;;;;;;23.34;51.20;101623.53;6268226;28;20278;-80
2022/08/01 11:28:23;;;;;;;6.13;1.98;;;;;;;23.58;51.70;101620.28;6271898;28;20243;-74
2022/08/01 11:31:44;;;;;;;5.70;2.05;;;;;;;23.58;49.64;101617.53;6267076;28;20335;-79
2022/08/01 11:35:06;;;;;;;5.88;2.72;;;;;;;24.04;48.56;101605.91;6269313;28;20231;-76
2022/08/01 11:38:29;;;;;;;4.03;2.17;;;;;;;24.43;46.58;101608.78;6266119;28;20326;-81
2022/08/01 11:41:52;;;;;;;5.35;2.05;;;;;;;24.13;46.09;101615.69;6270568;28;20231;-78
2022/08/01 11:45:13;;;;;;;6.22;1.88;;;;;;;24.65;47.10;101620.50;6266193;28;20224;-74
2022/08/01 11:48:34;;;;;;;4.00;1.35;;;;;;;24.21;45.47;101627.38;6273587;28;20538;-75
2022/08/01 11:51:59;;;;;;;4.75;2.13;;;;;;;24.57;46.32;101629.81;6275328;28;20235;-74
2022/08/01 11:55:22;;;;;;;8.45;2.30;;;;;;;24.86;46.50;101621.19;6277640;28;20231;-69
2022/08/01 11:58:43;;;;;;;4.25;1.80;;;;;;;24.65;46.91;101629.63;6264803;28;20239;-73
2022/08/01 12:02:04;;;;;;;5.57;2.25;;;;;;;24.14;48.08;101617.38;6270287;28;20722;-73
2022/08/01 12:05:26;;;;;;;6.18;1.73;;;;;;;24.26;45.61;101627.59;6279380;28;20223;-72
2022/08/01 12:08:47;;;;;;;3.35;1.70;;;;;;;24.17;46.85;101637.13;6260209;28;20227;-72
2022/08/01 12:12:09;;;;;;;5.40;1.70;;;;;;;24.75;45.36;101640.25;6242654;28;20227;-72
2022/08/01 12:15:33;;;;;;;4.78;1.95;;;;;;;24.70;45.78;101629.81;6267269;28;20250;-75
2022/08/01 12:18:54;;;;;;;4.53;1.83;;;;;;;23.55;46.25;101633.59;6273107;28;20227;-75
2022/08/01 12:22:15;;;;;;;3.45;1.58;;;;;;;24.53;46.12;101636.81;6279949;28;20227;-73
2022/08/01 12:25:38;;;;;;;4.03;1.67;;;;;;;23.96;44.37;101641.88;6272066;28;20231;-71
2022/08/01 12:29:01;;;;;;;3.55;1.15;;;;;;;24.72;43.92;101638.72;6272079;28;20250;-71
2022/08/01 12:32:24;;;;;;;2.83;1.20;;;;;;;25.52;41.97;101643.25;6268871;28;21842;-72
2022/08/01 12:35:46;;;;;;;2.70;1.25;;;;;;;26.00;42.51;101650.13;6268118;28;20257;-71
2022/08/01 12:39:08;;;;;;;3.42;1.80;;;;;;;25.89;42.39;101642.50;6265373;28;20231;-71
2022/08/01 12:42:29;;;;;;;2.92;1.52;;;;;;;27.59;37.55;101641.44;6269255;28;20235;-71
2022/08/01 12:45:52;;;;;;;2.78;1.27;;;;;;;28.22;36.83;101630.91;6251164;28;20540;-69
2022/08/01 12:49:14;;;;;;;3.60;1.75;;;;;;;30.07;35.37;101639.56;6258578;28;20268;-68
2022/08/01 12:52:35;;;;;;;3.15;1.45;;;;;;;30.79;32.13;101630.44;6244535;28;20360;-69
2022/08/01 12:55:56;;;;;;;8.57;2.90;;;;;;;29.99;32.33;101629.69;6262550;28;20227;-73
2022/08/01 12:59:24;;;;;;;4.28;1.58;;;;;;;31.47;32.08;101623.84;6268720;28;20223;-77
2022/08/01 13:02:49;;;;;;;3.85;1.27;;;;;;;32.78;29.20;101637.56;6237897;28;20321;-77
2022/08/01 13:06:14;;;;;;;4.68;2.03;;;;;;;32.03;30.13;101633.84;6259274;28;20614;-77
2022/08/01 13:09:35;;;;;;;3.78;1.60;;;;;;;31.49;31.44;101630.84;6267342;28;20321;-72
2022/08/01 13:12:59;;;;;;;4.90;2.22;;;;;;;31.02;31.94;101637.00;6262794;28;20226;-72
2022/08/01 13:16:21;;;;;;;4.78;1.60;;;;;;;30.54;32.06;101637.50;6252415;28;20230;-74
2022/08/01 13:19:44;;;;;;;1.90;1.10;;;;;;;30.83;32.00;101639.16;6265458;28;20236;-77
2022/08/01 13:23:15;;;;;;;4.75;1.90;;;;;;;30.53;31.39;101633.88;6268470;28;20226;-74
2022/08/01 13:26:42;;;;;;;3.00;1.80;;;;;;;31.02;29.84;101634.22;6258856;28;20573;-74
2022/08/01 13:30:12;;;;;;;9.07;2.38;;;;;;;30.26;30.86;101634.66;6261582;28;20227;-73
2022/08/01 13:33:42;;;;;;;4.32;2.10;;;;;;;29.35;31.94;101642.88;6262979;28;20223;-77
2022/08/01 13:37:04;;;;;;;3.45;1.60;;;;;;;28.37;33.26;101640.50;6263817;28;20290;-74
2022/08/01 13:40:29;;;;;;;5.28;2.35;;;;;;;29.19;32.76;101639.72;6267567;28;20227;-75
2022/08/01 13:43:50;;;;;;;2.80;1.30;;;;;;;28.24;35.07;101643.47;6272674;28;20231;-76
2022/08/01 13:47:11;;;;;;;5.65;2.95;;;;;;;28.37;35.06;101642.47;6269639;28;20235;-74
2022/08/01 13:50:33;;;;;;;4.85;1.90;;;;;;;28.12;34.24;101642.53;6263749;28;20231;-69
2022/08/01 13:53:56;;;;;;;4.43;1.50;;;;;;;28.50;33.99;101642.25;6271410;28;20623;-75
2022/08/01 13:57:17;;;;;;;3.80;1.50;;;;;;;27.60;35.92;101645.91;6255679;28;20223;-73
2022/08/01 14:00:38;;;;;;;2.35;1.27;;;;;;;27.03;35.31;101635.97;6263785;28;20454;-74
2022/08/01 14:03:59;;;;;;;5.82;1.73;;;;;;;28.08;35.54;101644.09;6264923;28;20226;-75
2022/08/01 14:07:20;;;;;;;3.67;1.48;;;;;;;28.48;33.89;101648.03;6257857;28;20235;-74
2022/08/01 14:10:43;;;;;;;7.75;2.88;;;;;;;28.56;34.87;101648.81;6246434;28;20235;-74
2022/08/01 14:14:04;;;;;;;2.28;1.40;;;;;;;26.95;35.36;101644.56;6268239;28;20234;-74
2022/08/01 14:17:24;;;;;;;5.05;1.55;;;;;;;26.57;37.59;101657.56;6255220;28;20270;-78
2022/08/01 14:20:46;;;;;;;5.13;1.42;;;;;;;25.56;39.03;101667.47;6265301;28;20227;-77
2022/08/01 14:24:07;;;;;;;4.00;1.20;;;;;;;26.01;38.39;101666.50;6262877;28;20533;-73
2022/08/01 14:27:30;;;;;;;5.38;1.48;;;;;;;25.10;39.81;101666.59;6261170;28;20219;-72
2022/08/01 14:30:51;;;;;;;4.50;1.90;;;;;;;25.35;39.99;101665.75;6253686;28;20224;-75
2022/08/01 14:34:13;;;;;;;3.83;1.63;;;;;;;24.94;39.74;101667.88;6261655;28;20232;-70
2022/08/01 14:37:34;;;;;;;17.50;2.85;;;;;;;24.57;40.83;101671.19;6263703;28;21224;-70
2022/08/01 14:40:55;;;;;;;4.43;1.95;;;;;;;24.76;41.06;101669.56;6256052;28;20617;-70
2022/08/01 14:44:17;;;;;;;3.97;1.48;;;;;;;24.20;41.33;101672.53;6272171;28;20219;-80
2022/08/01 14:47:40;;;;;;;2.80;1.75;;;;;;;24.79;41.77;101674.66;6268018;28;20242;-78
2022/08/01 14:54:39;;;;;;;5.88;1.88;;;;;;;23.80;42.46;101670.63;6486107;23;20516;-74
2022/08/01 14:58:00;;;;;;;4.95;1.98;;;;;;;24.46;41.88;101678.16;6017688;29;20231;-75
2022/08/01 15:01:22;;;;;;;5.03;1.48;;;;;;;24.22;42.81;101678.69;6008190;29;20250;-77
2022/08/01 15:04:44;;;;;;;4.07;1.77;;;;;;;24.22;42.75;101680.63;6013533;29;20238;-77
2022/08/01 15:08:06;;;;;;;3.25;1.55;;;;;;;24.86;42.93;101672.75;6015212;29;20231;-76
2022/08/01 15:11:27;;;;;;;5.85;2.28;;;;;;;24.74;42.23;101672.50;6015589;29;20238;-77
2022/08/01 15:14:51;;;;;;;4.45;2.55;;;;;;;24.93;41.86;101677.22;6014992;29;20238;-76
2022/08/01 15:18:13;;;;;;;3.67;1.85;;;;;;;25.24;41.54;101674.69;6016734;29;20246;-75
2022/08/01 15:21:34;;;;;;;5.40;1.98;;;;;;;25.33;40.98;101672.56;6016391;29;20309;-78
2022/08/01 15:24:57;;;;;;;6.93;1.85;;;;;;;25.29;40.75;101685.09;6004725;29;20516;-75
2022/08/01 15:28:19;;;;;;;5.53;1.67;;;;;;;24.64;41.37;101685.00;6013346;29;20243;-75
2022/08/01 15:31:40;;;;;;;4.95;1.95;;;;;;;24.35;41.65;101686.16;6017836;29;20266;-77
2022/08/01 15:35:02;;;;;;;4.85;1.80;;;;;;;24.72;42.96;101693.06;6013292;29;20680;-77
2022/08/01 15:38:23;;;;;;;5.72;2.20;;;;;;;24.17;42.41;101683.97;6006430;29;20238;-76
2022/08/01 15:41:44;;;;;;;3.13;1.95;;;;;;;24.55;42.47;101690.69;6020823;29;20242;-78
2022/08/01 15:45:07;;;;;;;3.85;1.52;;;;;;;24.33;43.73;101697.41;6011495;29;20238;-77
2022/08/01 15:48:28;;;;;;;3.97;1.42;;;;;;;24.89;42.44;101686.97;6011795;29;20230;-75